Time;durP1;ratioP1;P1;durP2;ratioP2;P2;SDS_P1;SDS_P2;PMS_P1;PMS_P2;Temp;Humidity;BMP_temperature;BMP_pressure;BME280_temperature;BME280_humidity;BME280_pressure;Samples;Min_cycle;Max_cycle;Signal;HPM_P1;HPM_P2
2021/01/20 00:02:22;;;;;;;2.30;1.23;;;;;;;0.70;71.37;98618.28;5051632;28;20056;-82
2021/01/20 00:04:48;;;;;;;2.37;1.17;;;;;;;0.42;73.03;98608.31;5051574;28;20059;-83
2021/01/20 00:07:15;;;;;;;1.07;1.00;;;;;;;0.51;72.11;98611.03;5052222;28;20428;-82
2021/01/20 00:09:43;;;;;;;1.67;1.10;;;;;;;0.48;72.83;98613.13;5050879;28;20049;-82
2021/01/20 00:12:10;;;;;;;1.40;1.10;;;;;;;0.35;73.23;98614.19;5052350;28;20045;-82
2021/01/20 00:14:37;;;;;;;1.27;1.10;;;;;;;0.41;73.14;98609.31;5051352;28;20504;-82
2021/01/20 00:17:04;;;;;;;1.93;1.33;;;;;;;0.31;73.62;98598.56;5051347;28;20051;-82
2021/01/20 00:19:30;;;;;;;1.67;1.33;;;;;;;0.21;73.58;98587.84;5044866;28;20045;-82
2021/01/20 00:21:57;;;;;;;2.97;1.30;;;;;;;0.29;73.86;98598.69;5052039;28;20589;-82
2021/01/20 00:24:23;;;;;;;2.90;1.53;;;;;;;0.15;74.21;98575.84;5051387;28;20052;-82
2021/01/20 00:26:49;;;;;;;1.60;1.17;;;;;;;0.34;73.84;98600.97;5052241;28;20049;-82
2021/01/20 00:29:16;;;;;;;1.83;1.30;;;;;;;0.31;74.15;98569.97;5050160;28;20501;-82
2021/01/20 00:31:43;;;;;;;2.03;1.40;;;;;;;0.48;73.43;98555.16;5050690;28;20114;-82
2021/01/20 00:34:14;;;;;;;2.93;1.33;;;;;;;0.38;74.35;98562.28;5050867;28;20041;-82
2021/01/20 00:36:41;;;;;;;6.43;1.40;;;;;;;0.46;73.89;98567.78;5054012;28;20429;-82
2021/01/20 00:39:07;;;;;;;1.87;1.40;;;;;;;0.58;73.90;98581.06;5052548;28;20056;-82
2021/01/20 00:41:33;;;;;;;2.77;1.50;;;;;;;0.46;75.04;98572.31;5048896;28;20057;-82
2021/01/20 00:44:00;;;;;;;2.57;1.40;;;;;;;0.47;74.59;98566.81;5016595;28;20049;-81
2021/01/20 00:46:26;;;;;;;1.20;1.10;;;;;;;0.57;74.32;98582.88;5043741;28;20045;-82
2021/01/20 00:48:54;;;;;;;1.33;1.23;;;;;;;0.58;74.65;98570.38;5053982;28;20049;-82
2021/01/20 00:51:23;;;;;;;1.43;1.17;;;;;;;0.53;74.57;98568.94;5053430;28;20106;-82
2021/01/20 00:53:49;;;;;;;1.80;1.43;;;;;;;0.52;74.96;98571.75;5053743;28;20045;-82
2021/01/20 00:56:15;;;;;;;1.80;1.50;;;;;;;0.64;74.35;98564.47;5053553;28;20506;-82
2021/01/20 00:58:42;;;;;;;1.63;1.40;;;;;;;0.61;75.01;98576.28;5054275;28;20456;-83
2021/01/20 01:01:08;;;;;;;1.97;1.60;;;;;;;0.54;75.25;98569.78;5054069;28;20056;-82
2021/01/20 01:03:35;;;;;;;2.63;1.20;;;;;;;0.47;75.53;98540.06;5053955;28;20056;-82
2021/01/20 01:06:02;;;;;;;2.40;1.40;;;;;;;0.61;75.80;98552.22;5053807;28;20053;-82
2021/01/20 01:08:29;;;;;;;1.57;1.40;;;;;;;0.76;75.29;98566.06;5053572;28;20626;-82
2021/01/20 01:10:58;;;;;;;2.30;1.40;;;;;;;0.67;75.36;98549.00;5053596;28;20053;-82
2021/01/20 01:13:25;;;;;;;1.20;1.10;;;;;;;0.57;76.00;98560.66;5040508;28;20438;-82
2021/01/20 01:15:51;;;;;;;2.27;1.40;;;;;;;0.77;76.12;98562.41;5053234;28;20763;-82
2021/01/20 01:18:18;;;;;;;2.37;1.10;;;;;;;0.76;75.66;98558.03;5038858;28;20052;-82
2021/01/20 01:20:44;;;;;;;1.73;1.57;;;;;;;0.64;75.79;98535.88;5050232;28;20053;-82
2021/01/20 01:23:13;;;;;;;1.07;0.97;;;;;;;0.42;75.88;98514.72;5054144;28;20489;-82
2021/01/20 01:25:39;;;;;;;1.43;1.33;;;;;;;0.66;76.09;98530.41;5040237;28;20049;-82
2021/01/20 01:28:12;;;;;;;1.60;1.07;;;;;;;0.51;76.19;98505.88;5035482;28;20054;-82
2021/01/20 01:30:39;;;;;;;1.07;1.03;;;;;;;0.51;76.70;98529.94;5053285;28;20052;-82
2021/01/20 01:33:06;;;;;;;2.10;1.40;;;;;;;0.69;76.22;98543.50;5053310;28;20052;-82
2021/01/20 01:35:32;;;;;;;1.73;1.13;;;;;;;0.83;75.41;98544.97;5053218;28;20094;-82
2021/01/20 01:37:59;;;;;;;3.33;0.90;;;;;;;0.88;75.51;98553.41;5052738;28;20063;-82
2021/01/20 01:40:26;;;;;;;2.07;1.13;;;;;;;0.92;75.92;98538.78;5052750;28;20114;-82
2021/01/20 01:42:52;;;;;;;2.73;1.30;;;;;;;0.76;76.06;98528.59;5052529;28;20048;-82
2021/01/20 01:45:20;;;;;;;1.20;1.10;;;;;;;0.81;75.77;98534.41;5042707;28;20053;-82
2021/01/20 01:47:46;;;;;;;1.30;1.00;;;;;;;0.78;75.75;98529.28;5053036;28;20049;-82
2021/01/20 01:50:14;;;;;;;2.37;1.43;;;;;;;0.66;75.87;98514.34;5052772;28;20045;-82
2021/01/20 01:52:43;;;;;;;1.97;1.10;;;;;;;0.63;76.18;98510.13;5052672;28;20574;-82
2021/01/20 01:55:11;;;;;;;2.00;0.90;;;;;;;0.66;76.59;98523.25;5052800;28;20404;-82
2021/01/20 01:57:40;;;;;;;3.80;1.03;;;;;;;0.67;77.14;98516.88;5052874;28;20049;-82
2021/01/20 02:00:08;;;;;;;1.43;1.00;;;;;;;0.76;76.55;98525.91;5052714;28;20049;-82
2021/01/20 02:02:35;;;;;;;1.47;1.10;;;;;;;0.70;77.37;98521.13;5053382;28;20053;-82
2021/01/20 02:05:04;;;;;;;1.27;1.00;;;;;;;0.56;76.99;98505.44;5053774;28;20522;-82
2021/01/20 02:07:31;;;;;;;4.40;1.13;;;;;;;0.48;77.26;98495.44;5047719;28;20105;-82
2021/01/20 02:10:01;;;;;;;0.80;0.80;;;;;;;0.55;76.61;98506.47;5052455;28;20053;-82
2021/01/20 02:12:51;;;;;;;1.48;1.20;;;;;;;0.50;76.91;98512.22;5052667;28;20147;-82
2021/01/20 02:15:24;;;;;;;2.20;1.20;;;;;;;0.41;77.56;98497.00;5033358;28;20481;-82
2021/01/20 02:17:58;;;;;;;2.10;1.10;;;;;;;0.34;77.70;98504.69;5039166;28;20072;-82
2021/01/20 02:20:58;;;;;;;1.30;1.10;;;;;;;0.31;77.90;98499.63;5052725;28;20394;-82
2021/01/20 02:23:26;;;;;;;1.40;1.30;;;;;;;0.33;78.41;98513.69;5048022;28;20052;-82
2021/01/20 02:26:15;;;;;;;2.53;1.20;;;;;;;0.39;78.57;98523.84;5052720;28;20061;-82
2021/01/20 02:29:18;;;;;;;3.00;1.20;;;;;;;0.50;78.82;98514.91;5053048;28;20122;-82
2021/01/20 02:31:49;;;;;;;1.70;1.20;;;;;;;0.47;78.41;98499.97;5042628;28;20061;-82
2021/01/20 02:34:20;;;;;;;1.37;1.20;;;;;;;0.61;78.79;98517.44;5055929;28;20125;-82
2021/01/20 02:36:47;;;;;;;1.07;1.07;;;;;;;0.55;78.29;98504.63;5056813;28;20135;-82
2021/01/20 02:39:13;;;;;;;1.30;1.20;;;;;;;0.40;78.40;98490.78;5050927;28;20041;-82
2021/01/20 02:41:40;;;;;;;2.33;1.20;;;;;;;0.59;78.39;98507.84;5056232;28;20052;-83
2021/01/20 02:44:10;;;;;;;1.37;1.17;;;;;;;0.64;77.71;98527.03;5055884;28;20489;-82
2021/01/20 02:46:37;;;;;;;1.42;1.20;;;;;;;0.57;77.79;98526.72;5056364;28;20053;-82
2021/01/20 02:49:05;;;;;;;1.47;1.23;;;;;;;0.35;78.78;98522.44;5056357;28;20048;-82
2021/01/20 02:51:43;;;;;;;0.90;0.90;;;;;;;0.37;78.81;98523.16;5055531;28;20538;-82
2021/01/20 02:54:12;;;;;;;2.13;1.20;;;;;;;0.16;79.46;98508.00;5055644;28;20053;-82
2021/01/20 02:56:40;;;;;;;1.43;1.23;;;;;;;0.17;79.48;98498.19;5056461;28;20064;-82
2021/01/20 02:59:08;;;;;;;1.30;1.20;;;;;;;0.17;79.34;98493.66;5055873;28;20045;-82
2021/01/20 03:01:39;;;;;;;1.63;1.40;;;;;;;0.11;79.72;98502.25;5055872;28;20386;-82
2021/01/20 03:04:08;;;;;;;1.87;1.20;;;;;;;0.22;79.66;98525.34;5055882;28;20057;-82
2021/01/20 03:06:36;;;;;;;1.47;1.33;;;;;;;0.16;79.88;98512.53;5055989;28;20048;-82
2021/01/20 03:09:05;;;;;;;6.53;1.30;;;;;;;0.15;79.78;98510.81;5055455;28;20060;-82
2021/01/20 03:11:32;;;;;;;1.30;1.13;;;;;;;0.19;80.17;98517.59;5055444;28;20049;-82
2021/01/20 03:13:59;;;;;;;3.70;1.17;;;;;;;0.19;80.21;98522.09;5055568;28;20136;-82
2021/01/20 03:16:28;;;;;;;2.07;1.60;;;;;;;0.12;80.49;98505.75;5055400;28;20052;-82
2021/01/20 03:18:54;;;;;;;2.20;1.30;;;;;;;0.01;80.71;98497.84;5055851;28;20105;-82
2021/01/20 03:21:22;;;;;;;3.17;1.40;;;;;;;0.05;80.52;98486.75;5055104;28;20147;-82
2021/01/20 03:23:50;;;;;;;2.33;1.50;;;;;;;0.05;80.38;98484.06;5055643;28;20044;-82
2021/01/20 03:26:17;;;;;;;0.87;0.83;;;;;;;0.06;80.00;98483.09;5055519;28;20068;-81
2021/01/20 03:28:43;;;;;;;1.20;1.10;;;;;;;0.09;80.39;98484.63;5055586;28;20144;-82
2021/01/20 03:31:09;;;;;;;1.30;1.10;;;;;;;0.02;80.16;98470.13;5055439;28;20055;-82
2021/01/20 03:33:36;;;;;;;1.23;1.10;;;;;;;0.02;80.41;98470.13;5055290;28;20045;-82
2021/01/20 03:36:03;;;;;;;1.83;1.30;;;;;;;0.25;80.22;98484.97;5055457;28;20063;-82
2021/01/20 03:38:30;;;;;;;2.87;1.30;;;;;;;0.02;80.06;98462.13;5054700;28;20052;-82
2021/01/20 03:40:59;;;;;;;1.30;1.20;;;;;;;-0.06;80.18;98463.63;5055216;28;20401;-82
2021/01/20 03:43:26;;;;;;;1.80;1.10;;;;;;;-0.16;80.69;98456.56;5054677;28;20053;-82
2021/01/20 03:45:52;;;;;;;2.57;1.20;;;;;;;-0.19;80.72;98465.69;5055086;28;20103;-82
2021/01/20 03:48:19;;;;;;;1.97;1.40;;;;;;;-0.13;81.21;98480.34;5054946;28;20041;-82
2021/01/20 03:50:45;;;;;;;1.50;1.27;;;;;;;-0.10;81.17;98485.41;5054797;28;20048;-82
2021/01/20 03:53:12;;;;;;;2.17;1.13;;;;;;;-0.24;81.21;98449.19;5054984;28;20049;-82
2021/01/20 03:55:39;;;;;;;1.37;1.20;;;;;;;-0.02;80.80;98467.72;5054892;28;20045;-82
2021/01/20 03:58:06;;;;;;;1.17;1.00;;;;;;;-0.10;81.07;98472.06;5054253;28;20497;-82
2021/01/20 04:00:32;;;;;;;1.20;0.93;;;;;;;-0.20;81.03;98475.53;5055429;28;20057;-82
2021/01/20 04:03:02;;;;;;;1.83;1.30;;;;;;;-0.40;81.13;98441.69;5055254;28;20102;-82
2021/01/20 04:05:28;;;;;;;1.65;1.30;;;;;;;-0.29;81.30;98468.28;5055229;28;20045;-82
2021/01/20 04:07:54;;;;;;;1.30;1.20;;;;;;;-0.47;81.60;98445.88;5059035;28;20665;-82
2021/01/20 04:10:21;;;;;;;1.10;1.00;;;;;;;-0.37;81.93;98454.78;5059959;28;20049;-83
2021/01/20 04:12:48;;;;;;;2.90;1.73;;;;;;;-0.49;82.08;98434.47;5056067;28;20056;-83
2021/01/20 04:15:15;;;;;;;1.87;1.10;;;;;;;-0.30;81.70;98468.44;5054852;28;20083;-82
2021/01/20 04:17:41;;;;;;;1.40;1.30;;;;;;;-0.38;81.91;98437.06;5054289;28;20504;-83
2021/01/20 04:20:09;;;;;;;1.37;1.27;;;;;;;-0.31;82.03;98454.25;5034654;28;20054;-82
2021/01/20 04:22:35;;;;;;;3.33;1.57;;;;;;;-0.27;82.03;98465.50;5034668;28;20045;-82
2021/01/20 04:25:04;;;;;;;1.30;1.20;;;;;;;-0.39;82.12;98443.38;5052010;28;20064;-82
2021/01/20 04:27:31;;;;;;;3.33;1.20;;;;;;;-0.29;81.76;98446.94;5054313;28;20052;-83
2021/01/20 04:29:58;;;;;;;1.53;1.13;;;;;;;-0.30;82.00;98431.03;5054857;28;20056;-82
2021/01/20 04:32:24;;;;;;;1.50;1.33;;;;;;;-0.17;81.92;98445.00;5054155;28;20059;-82
2021/01/20 04:34:51;;;;;;;2.27;1.60;;;;;;;-0.12;81.52;98425.91;5053904;28;20053;-83
2021/01/20 04:37:17;;;;;;;4.23;1.50;;;;;;;-0.10;82.23;98442.66;5053870;28;20489;-83
2021/01/20 04:39:45;;;;;;;3.10;1.50;;;;;;;-0.14;81.82;98426.03;5053874;28;20525;-83
2021/01/20 04:42:11;;;;;;;2.57;1.30;;;;;;;-0.06;82.43;98431.56;5053663;28;20048;-82
2021/01/20 04:44:38;;;;;;;1.37;1.17;;;;;;;-0.02;82.24;98429.47;5053766;28;20053;-82
2021/01/20 04:47:06;;;;;;;1.40;1.30;;;;;;;-0.17;82.31;98414.78;5053554;28;20053;-82
2021/01/20 04:49:36;;;;;;;2.03;1.40;;;;;;;-0.23;81.81;98410.81;5054249;28;20433;-83
2021/01/20 04:52:03;;;;;;;2.90;1.43;;;;;;;-0.27;82.04;98399.56;5053711;28;20056;-82
2021/01/20 04:54:32;;;;;;;1.27;1.13;;;;;;;-0.21;82.43;98409.72;5051689;28;20135;-82
2021/01/20 04:56:59;;;;;;;1.13;0.97;;;;;;;-0.01;82.05;98437.34;5051540;28;20048;-82
2021/01/20 04:59:31;;;;;;;1.10;1.10;;;;;;;-0.09;81.62;98425.63;5053195;28;20057;-81
2021/01/20 05:02:03;;;;;;;3.33;1.20;;;;;;;-0.07;81.98;98434.38;5053772;28;20045;-82
2021/01/20 05:04:31;;;;;;;3.23;1.40;;;;;;;-0.28;82.08;98405.06;5053762;28;20063;-82
2021/01/20 05:06:59;;;;;;;1.30;1.20;;;;;;;-0.24;81.87;98414.47;5053475;28;20473;-82
2021/01/20 05:09:25;;;;;;;2.10;1.20;;;;;;;-0.15;81.86;98410.16;5053605;28;20049;-81
2021/01/20 05:11:52;;;;;;;1.40;1.30;;;;;;;-0.20;81.73;98421.25;5051188;28;20045;-84
2021/01/20 05:14:19;;;;;;;2.77;1.70;;;;;;;-0.20;81.66;98422.09;5051485;28;20102;-82
2021/01/20 05:16:54;;;;;;;1.40;1.30;;;;;;;-0.25;82.43;98424.31;5054283;28;20053;-88
2021/01/20 05:19:37;;;;;;;3.53;1.37;;;;;;;-0.18;82.47;98429.97;5054266;28;20476;-86
2021/01/20 05:22:08;;;;;;;1.93;1.30;;;;;;;-0.18;82.28;98424.66;5052524;28;20086;-86
2021/01/20 05:24:35;;;;;;;1.33;1.10;;;;;;;-0.13;82.27;98419.72;5051875;28;20072;-87
2021/01/20 05:27:03;;;;;;;1.33;1.13;;;;;;;-0.05;81.63;98425.22;5051675;28;20065;-86
2021/01/20 05:29:29;;;;;;;1.20;1.10;;;;;;;-0.05;81.55;98411.88;5052688;28;20126;-87
2021/01/20 05:31:56;;;;;;;1.40;1.30;;;;;;;0.16;81.38;98424.31;5052000;28;20048;-87
2021/01/20 05:34:32;;;;;;;2.53;1.50;;;;;;;0.28;81.07;98423.19;5051638;28;20041;-87
2021/01/20 05:37:12;;;;;;;1.57;1.10;;;;;;;0.46;80.47;98430.56;5050954;28;20144;-87
2021/01/20 05:39:41;;;;;;;1.73;1.08;;;;;;;0.38;79.98;98396.50;5051293;28;20285;-87
2021/01/20 05:42:09;;;;;;;1.48;1.00;;;;;;;0.53;80.01;98418.34;5051456;28;20053;-87
2021/01/20 05:44:37;;;;;;;1.10;1.00;;;;;;;0.55;80.23;98413.69;5051678;28;20060;-87
2021/01/20 05:47:08;;;;;;;2.90;1.10;;;;;;;0.65;79.48;98408.34;5051958;28;20041;-87
2021/01/20 05:49:35;;;;;;;2.13;1.20;;;;;;;0.80;78.80;98414.09;5051068;28;20505;-86
2021/01/20 05:52:04;;;;;;;1.23;1.07;;;;;;;0.66;78.69;98393.97;5051165;28;20301;-86
2021/01/20 05:54:33;;;;;;;1.20;1.10;;;;;;;0.77;79.10;98404.53;5051273;28;20485;-87
2021/01/20 05:57:13;;;;;;;1.30;1.20;;;;;;;0.85;79.15;98414.53;5052098;28;20041;-87
2021/01/20 05:59:40;;;;;;;1.43;1.10;;;;;;;0.80;79.02;98403.38;5052179;28;20254;-87
2021/01/20 06:02:09;;;;;;;1.10;1.00;;;;;;;0.88;78.88;98408.91;5041419;28;20053;-86
2021/01/20 06:04:36;;;;;;;3.27;1.20;;;;;;;0.70;79.09;98376.66;5031076;28;20095;-86
2021/01/20 06:07:05;;;;;;;1.07;1.00;;;;;;;0.78;79.04;98405.38;5048971;28;20110;-86
2021/01/20 06:09:40;;;;;;;1.13;1.03;;;;;;;0.79;78.93;98391.00;5056484;28;20072;-87
2021/01/20 06:12:08;;;;;;;1.67;1.20;;;;;;;0.69;79.10;98377.63;5066513;28;20045;-88
2021/01/20 06:14:37;;;;;;;1.60;0.93;;;;;;;0.79;78.42;98383.81;5064866;28;20078;-87
2021/01/20 06:17:16;;;;;;;1.35;0.98;;;;;;;0.87;79.25;98402.72;5056100;28;20524;-87
2021/01/20 06:19:58;;;;;;;2.03;1.23;;;;;;;0.82;78.33;98383.53;5052168;28;20482;-87
2021/01/20 06:22:28;;;;;;;1.27;1.10;;;;;;;0.83;78.04;98374.53;5051352;28;20072;-87
2021/01/20 06:24:59;;;;;;;1.50;1.10;;;;;;;1.11;77.73;98393.34;5050186;28;20064;-87
2021/01/20 06:27:34;;;;;;;2.25;1.30;;;;;;;1.12;77.83;98394.22;5055240;28;20051;-87
2021/01/20 06:30:07;;;;;;;1.15;0.80;;;;;;;0.95;77.92;98371.69;5054711;28;20075;-87
2021/01/20 06:32:35;;;;;;;1.33;1.08;;;;;;;1.02;78.12;98402.25;5055225;28;20412;-87
2021/01/20 06:35:02;;;;;;;1.90;1.20;;;;;;;0.96;78.23;98387.59;5053914;28;20076;-87
2021/01/20 06:37:39;;;;;;;3.03;1.55;;;;;;;1.15;77.58;98407.31;5055144;28;20053;-87
2021/01/20 06:40:48;;;;;;;3.03;0.90;;;;;;;1.27;77.61;98403.50;5050993;28;20048;-87
2021/01/20 06:43:44;;;;;;;1.20;1.10;;;;;;;1.31;76.08;98388.81;5051131;28;20057;-87
2021/01/20 06:46:25;;;;;;;2.70;1.00;;;;;;;1.39;76.59;98396.97;5054797;28;20416;-87
2021/01/20 06:49:17;;;;;;;1.63;1.30;;;;;;;1.30;77.36;98400.53;5054643;28;20308;-87
2021/01/20 06:52:10;;;;;;;2.38;1.25;;;;;;;1.12;77.14;98387.03;5053602;28;20064;-87
2021/01/20 06:54:41;;;;;;;2.67;1.50;;;;;;;0.97;77.35;98370.56;5034773;28;20073;-88
2021/01/20 06:57:32;;;;;;;3.40;1.27;;;;;;;1.13;77.32;98398.56;5042318;28;20567;-88
2021/01/20 07:00:21;;;;;;;1.40;1.07;;;;;;;1.14;76.45;98374.31;5054616;28;20053;-85
2021/01/20 07:03:01;;;;;;;2.27;1.40;;;;;;;1.27;76.49;98392.78;5053509;28;20053;-84
2021/01/20 07:05:35;;;;;;;1.25;0.88;;;;;;;1.34;76.56;98385.00;5054047;28;20041;-84
2021/01/20 07:08:02;;;;;;;2.20;1.35;;;;;;;1.50;75.33;98381.72;5053989;28;20500;-85
2021/01/20 07:10:31;;;;;;;1.33;1.23;;;;;;;1.54;75.81;98397.34;5053960;28;20048;-85
2021/01/20 07:13:20;;;;;;;2.05;1.20;;;;;;;1.33;75.42;98367.25;5054308;28;20397;-85
2021/01/20 07:16:04;;;;;;;1.52;1.05;;;;;;;1.43;75.45;98373.44;5053931;28;20056;-85
2021/01/20 07:18:31;;;;;;;2.43;1.00;;;;;;;1.54;75.29;98370.56;5050429;28;20107;-85
2021/01/20 07:21:00;;;;;;;1.50;0.85;;;;;;;1.65;74.80;98384.75;5041119;28;20045;-87
2021/01/20 07:23:39;;;;;;;1.70;1.20;;;;;;;1.73;74.07;98356.25;5053512;28;20049;-86
2021/01/20 07:26:14;;;;;;;1.42;0.95;;;;;;;1.64;74.52;98373.22;5051306;28;20114;-86
2021/01/20 07:28:44;;;;;;;2.63;1.60;;;;;;;1.50;75.15;98347.72;5052370;28;20045;-86
2021/01/20 07:31:16;;;;;;;1.23;1.05;;;;;;;1.46;74.85;98346.34;5052206;28;20049;-86
2021/01/20 07:33:52;;;;;;;2.22;1.40;;;;;;;1.66;74.72;98373.91;5053477;28;20072;-86
2021/01/20 07:36:20;;;;;;;1.20;1.00;;;;;;;1.67;74.27;98345.25;5053052;28;20493;-86
2021/01/20 07:38:48;;;;;;;5.28;1.20;;;;;;;1.85;74.37;98377.47;5049891;28;20092;-86
2021/01/20 07:41:16;;;;;;;1.02;0.93;;;;;;;1.64;74.52;98335.69;5038050;28;20044;-85
2021/01/20 07:43:43;;;;;;;3.97;1.20;;;;;;;1.81;72.53;98338.53;5053753;28;20060;-86
2021/01/20 07:46:22;;;;;;;2.53;1.00;;;;;;;1.91;73.37;98339.34;5052911;28;20048;-86
2021/01/20 07:48:49;;;;;;;2.28;1.15;;;;;;;2.03;72.20;98359.63;5053463;28;20246;-84
2021/01/20 07:51:17;;;;;;;1.55;1.05;;;;;;;2.16;72.02;98369.97;5053098;28;20562;-86
2021/01/20 07:53:56;;;;;;;1.38;1.00;;;;;;;2.17;71.26;98354.69;5036753;28;20092;-86
2021/01/20 07:56:25;;;;;;;5.57;1.17;;;;;;;2.29;71.27;98358.88;5033471;28;20061;-86
2021/01/20 07:58:51;;;;;;;0.95;0.90;;;;;;;2.43;70.45;98336.03;5049597;28;20489;-86
2021/01/20 08:01:32;;;;;;;1.15;0.90;;;;;;;2.39;70.55;98337.34;5053027;28;20049;-86
2021/01/20 08:04:01;;;;;;;3.47;1.10;;;;;;;2.47;70.21;98351.69;5052624;28;20079;-86
2021/01/20 08:06:41;;;;;;;2.30;1.52;;;;;;;2.56;71.03;98360.66;5052617;28;20055;-86
2021/01/20 08:09:08;;;;;;;1.08;0.98;;;;;;;2.46;70.62;98338.41;5052024;28;20052;-86
2021/01/20 08:11:55;;;;;;;2.90;1.27;;;;;;;2.65;69.53;98340.94;5052634;28;20061;-86
2021/01/20 08:14:37;;;;;;;3.67;1.70;;;;;;;2.64;70.21;98325.81;5051533;28;20049;-85
2021/01/20 08:17:05;;;;;;;2.28;1.40;;;;;;;2.85;68.59;98346.13;5057602;28;20049;-86
2021/01/20 08:19:34;;;;;;;1.52;1.20;;;;;;;2.91;69.18;98358.09;5061275;28;20192;-85
2021/01/20 08:22:01;;;;;;;9.00;1.55;;;;;;;2.99;68.71;98345.53;5052809;28;20113;-86
2021/01/20 08:24:31;;;;;;;8.32;2.13;;;;;;;2.99;68.63;98347.41;5051532;28;20513;-86
2021/01/20 08:27:01;;;;;;;1.42;1.13;;;;;;;2.94;68.34;98321.03;5050726;28;20045;-86
2021/01/20 08:29:28;;;;;;;1.58;1.10;;;;;;;3.01;68.19;98337.34;5051170;28;20057;-86
2021/01/20 08:32:19;;;;;;;1.42;1.10;;;;;;;3.09;68.81;98345.47;5050968;28;20057;-86
2021/01/20 08:34:49;;;;;;;2.90;1.10;;;;;;;3.06;68.79;98326.97;5052413;28;20045;-87
2021/01/20 08:37:26;;;;;;;;;;;;;;;3.19;68.38;98338.16;5052857;28;20045;-87
2021/01/20 08:39:55;;;;;;;2.03;1.30;;;;;;;3.15;68.31;98325.19;5051756;28;19920;-86
2021/01/20 08:42:26;;;;;;;1.08;0.98;;;;;;;3.30;67.46;98339.72;5054569;28;20053;-86
2021/01/20 08:45:15;;;;;;;3.72;1.20;;;;;;;3.43;67.10;98343.81;5053967;28;20056;-86
2021/01/20 08:47:54;;;;;;;3.83;1.20;;;;;;;3.45;67.73;98331.09;5053276;28;20444;-86
2021/01/20 08:50:34;;;;;;;1.63;1.38;;;;;;;3.41;67.47;98311.72;5050904;28;20695;-87
2021/01/20 08:53:17;;;;;;;;;;;;;;;;;;;;;
2021/01/20 08:55:52;;;;;;;4.47;1.30;;;;;;;3.46;66.90;98297.81;5044730;28;20049;-87
2021/01/20 08:58:27;;;;;;;2.85;1.27;;;;;;;3.59;66.22;98314.34;5069929;28;20049;-86
2021/01/20 09:01:01;;;;;;;5.47;1.70;;;;;;;3.58;66.09;98307.28;5055094;28;20053;-86
2021/01/20 09:03:29;;;;;;;2.58;1.10;;;;;;;3.71;65.96;98318.41;5052402;28;20049;-86
2021/01/20 09:05:57;;;;;;;3.17;1.23;;;;;;;3.64;65.63;98293.19;5052167;28;20477;-86
2021/01/20 09:08:26;;;;;;;1.75;1.08;;;;;;;3.60;66.32;98299.91;5052928;28;20545;-86
2021/01/20 09:10:54;;;;;;;2.03;1.20;;;;;;;3.69;66.52;98298.94;5052301;28;20056;-85
2021/01/20 09:13:22;;;;;;;2.00;1.20;;;;;;;3.88;65.14;98329.22;5051789;28;20040;-86
2021/01/20 09:15:51;;;;;;;2.30;1.30;;;;;;;3.79;65.55;98317.59;5052298;28;20079;-86
2021/01/20 09:18:19;;;;;;;1.48;1.10;;;;;;;3.96;65.23;98333.78;5052345;28;20056;-85
2021/01/20 09:20:47;;;;;;;2.25;1.23;;;;;;;3.95;65.01;98318.69;5052179;28;20420;-85
2021/01/20 09:23:14;;;;;;;2.28;1.40;;;;;;;3.79;65.65;98281.81;5051872;28;20040;-86
2021/01/20 09:25:41;;;;;;;2.33;1.30;;;;;;;3.94;64.83;98306.25;5051812;28;20449;-86
2021/01/20 09:28:08;;;;;;;3.15;1.95;;;;;;;3.97;65.46;98297.84;5052363;28;20416;-86
2021/01/20 09:30:35;;;;;;;4.25;1.88;;;;;;;3.94;66.35;98303.53;5052390;28;20056;-86
2021/01/20 09:33:02;;;;;;;2.60;1.73;;;;;;;4.02;65.87;98309.81;5051854;28;20103;-86
2021/01/20 09:35:29;;;;;;;3.85;1.77;;;;;;;4.08;65.07;98311.81;5035044;28;20391;-85
2021/01/20 09:37:56;;;;;;;3.15;1.60;;;;;;;4.20;65.23;98324.94;5052370;28;20139;-85
2021/01/20 09:40:25;;;;;;;2.60;1.25;;;;;;;4.01;66.19;98288.44;5051743;28;20136;-85
2021/01/20 09:42:52;;;;;;;2.05;1.52;;;;;;;4.16;65.86;98308.31;5055023;28;20429;-85
2021/01/20 09:45:22;;;;;;;3.53;1.50;;;;;;;4.16;66.31;98323.63;5055315;28;20553;-85
2021/01/20 09:47:48;;;;;;;1.77;1.42;;;;;;;4.00;67.25;98298.34;5056061;28;20065;-83
2021/01/20 09:50:16;;;;;;;5.05;2.33;;;;;;;3.94;67.21;98288.25;5051019;28;20346;-83
2021/01/20 09:52:44;;;;;;;25.05;3.05;;;;;;;4.08;66.16;98292.16;5055356;28;20535;-84
2021/01/20 09:55:15;;;;;;;33.63;4.95;;;;;;;4.08;66.21;98284.09;5054476;28;20045;-82
2021/01/20 09:57:42;;;;;;;129.85;13.38;;;;;;;4.31;66.68;98305.81;5065250;28;20071;-82
2021/01/20 10:00:11;;;;;;;60.08;6.35;;;;;;;4.27;66.68;98293.69;5075713;28;20087;-88
2021/01/20 10:02:38;;;;;;;9.43;2.77;;;;;;;4.36;65.89;98283.78;5059735;28;20107;-86
2021/01/20 10:05:06;;;;;;;11.25;2.55;;;;;;;4.46;65.43;98295.25;5052295;28;20075;-86
2021/01/20 10:07:33;;;;;;;6.75;2.00;;;;;;;4.55;65.89;98291.53;5055031;28;20061;-86
2021/01/20 10:10:00;;;;;;;5.22;2.00;;;;;;;4.64;65.40;98294.22;5047508;28;20536;-86
2021/01/20 10:12:27;;;;;;;10.75;2.53;;;;;;;4.63;65.99;98295.25;5043400;28;20386;-86
2021/01/20 10:14:54;;;;;;;5.53;2.33;;;;;;;4.71;65.67;98288.00;5055307;28;20390;-86
2021/01/20 10:17:20;;;;;;;2.67;1.77;;;;;;;4.70;65.30;98280.94;5054372;28;20129;-85
2021/01/20 10:19:47;;;;;;;4.57;1.40;;;;;;;4.82;64.80;98292.22;5054995;28;20057;-86
2021/01/20 10:22:13;;;;;;;2.90;1.60;;;;;;;4.72;64.13;98248.47;5055087;28;20097;-85
2021/01/20 10:24:39;;;;;;;3.95;1.50;;;;;;;4.91;64.26;98258.88;5054811;28;20122;-84
2021/01/20 10:27:06;;;;;;;3.47;1.92;;;;;;;5.02;64.96;98267.59;5055302;28;20051;-85
2021/01/20 10:29:34;;;;;;;4.68;1.48;;;;;;;4.94;63.76;98255.84;5054310;28;20056;-85
2021/01/20 10:32:01;;;;;;;2.30;1.50;;;;;;;5.00;63.65;98261.53;5055040;28;20057;-85
2021/01/20 10:34:29;;;;;;;5.25;1.65;;;;;;;4.81;63.75;98217.81;5052033;28;20053;-85
2021/01/20 10:36:56;;;;;;;3.35;1.70;;;;;;;4.95;64.38;98217.13;5053616;28;20447;-85
2021/01/20 10:39:22;;;;;;;3.70;2.08;;;;;;;4.99;64.56;98225.69;5054313;28;20086;-85
2021/01/20 10:41:49;;;;;;;7.15;3.25;;;;;;;5.18;63.33;98234.38;5054546;28;20057;-85
2021/01/20 10:44:16;;;;;;;6.80;2.35;;;;;;;5.28;63.14;98213.47;5051743;28;20428;-85
2021/01/20 10:46:43;;;;;;;3.67;1.73;;;;;;;5.29;63.04;98198.97;5043181;28;20049;-84
2021/01/20 10:49:10;;;;;;;5.15;2.33;;;;;;;5.43;63.25;98221.66;5049743;28;20412;-85
2021/01/20 10:51:36;;;;;;;7.57;2.67;;;;;;;5.42;63.34;98209.19;5049909;28;20055;-85
2021/01/20 10:54:04;;;;;;;5.80;3.17;;;;;;;5.42;64.50;98196.56;5052325;28;20132;-85
2021/01/20 10:56:31;;;;;;;3.92;2.05;;;;;;;5.58;63.72;98206.41;5052898;28;20072;-85
2021/01/20 10:58:57;;;;;;;2.83;1.65;;;;;;;5.66;62.45;98200.13;5052929;28;20056;-84
2021/01/20 11:01:24;;;;;;;2.13;1.45;;;;;;;5.73;60.02;98182.22;5053335;28;20045;-85
2021/01/20 11:03:51;;;;;;;3.85;1.95;;;;;;;5.84;61.61;98195.31;5052598;28;20053;-85
2021/01/20 11:06:21;;;;;;;3.72;1.55;;;;;;;5.88;60.89;98192.28;5051599;28;20119;-85
2021/01/20 11:08:47;;;;;;;4.25;1.50;;;;;;;5.91;61.32;98186.50;5051299;28;20429;-85
2021/01/20 11:11:14;;;;;;;4.32;1.35;;;;;;;5.84;61.07;98170.19;5042119;28;20053;-85
2021/01/20 11:13:41;;;;;;;4.93;2.47;;;;;;;5.82;61.32;98159.59;5050701;28;20049;-85
2021/01/20 11:16:08;;;;;;;4.40;2.65;;;;;;;5.95;60.52;98177.88;5053230;28;20478;-84
2021/01/20 11:18:36;;;;;;;3.53;1.98;;;;;;;5.93;62.14;98177.25;5052760;28;20053;-84
2021/01/20 11:21:06;;;;;;;3.80;1.90;;;;;;;5.84;62.79;98148.63;5052836;28;20563;-84
2021/01/20 11:23:35;;;;;;;3.80;1.98;;;;;;;5.95;62.56;98169.78;5052183;28;20061;-85
2021/01/20 11:26:04;;;;;;;3.65;1.65;;;;;;;5.78;62.14;98141.25;5052974;28;20408;-84
2021/01/20 11:28:30;;;;;;;3.50;1.50;;;;;;;5.90;62.25;98155.16;5045401;28;20061;-85
2021/01/20 11:30:57;;;;;;;6.53;1.92;;;;;;;5.83;61.92;98139.69;5053564;28;20057;-83
2021/01/20 11:33:24;;;;;;;3.88;1.90;;;;;;;6.00;62.00;98164.72;5052993;28;20041;-85
2021/01/20 11:35:50;;;;;;;5.07;2.28;;;;;;;5.90;62.01;98142.53;5053370;28;20148;-83
2021/01/20 11:38:18;;;;;;;6.50;2.20;;;;;;;6.12;62.04;98162.44;5052962;28;20086;-86
2021/01/20 11:40:45;;;;;;;2.75;1.85;;;;;;;6.03;61.44;98145.47;5053669;28;20488;-85
2021/01/20 11:43:11;;;;;;;11.07;4.43;;;;;;;6.05;61.56;98144.47;5053509;28;20064;-83
2021/01/20 11:45:39;;;;;;;3.78;1.80;;;;;;;6.11;59.80;98136.50;5052823;28;20048;-83
2021/01/20 11:48:07;;;;;;;5.90;1.70;;;;;;;6.11;61.56;98127.53;5053642;28;20432;-86
2021/01/20 11:50:34;;;;;;;7.68;4.07;;;;;;;5.94;61.33;98100.66;5052285;28;20535;-86
2021/01/20 11:53:01;;;;;;;2.90;2.05;;;;;;;5.95;61.07;98113.13;5053777;28;20053;-83
2021/01/20 11:55:28;;;;;;;3.33;1.67;;;;;;;5.97;60.38;98111.13;5051863;28;20064;-83